createdAt,value
2018-12-15T00:00:31.736Z,70.90
2018-12-15T00:03:05.443Z,70.80
2018-12-15T00:05:43.919Z,70.80
2018-12-15T00:08:15.779Z,70.80
2018-12-15T00:10:54.354Z,70.80
2018-12-15T00:13:31.215Z,70.80
2018-12-15T00:16:08.010Z,70.80
2018-12-15T00:18:43.331Z,70.90
2018-12-15T00:21:14.515Z,70.70
2018-12-15T00:24:02.387Z,70.30
2018-12-15T00:26:43.716Z,70.30
2018-12-15T00:29:28.731Z,70.10
2018-12-15T00:32:08.120Z,70.00
2018-12-15T00:34:42.444Z,70.00
2018-12-15T00:37:16.746Z,69.90
2018-12-15T00:39:49.457Z,69.60
2018-12-15T00:42:35.210Z,69.30
2018-12-15T00:45:05.367Z,69.40
2018-12-15T00:47:36.455Z,69.40
2018-12-15T00:50:07.875Z,69.30
2018-12-15T00:52:52.999Z,69.10
2018-12-15T00:55:24.502Z,69.00
2018-12-15T00:57:57.420Z,69.00
2018-12-15T01:00:29.325Z,69.00
2018-12-15T01:05:49.603Z,68.60
2018-12-15T01:08:19.867Z,68.40
2018-12-15T01:10:51.502Z,68.60
2018-12-15T01:13:27.662Z,68.70
2018-12-15T01:15:57.556Z,68.70
2018-12-15T01:18:42.271Z,68.70
2018-12-15T01:21:13.355Z,68.80
2018-12-15T01:23:50.483Z,69.00
2018-12-15T01:26:23.771Z,68.80
2018-12-15T01:28:57.212Z,68.80
2018-12-15T01:31:29.632Z,69.00
2018-12-15T01:34:18.978Z,68.90
2018-12-15T01:36:52.778Z,68.90
2018-12-15T01:39:23.347Z,68.90
2018-12-15T01:42:07.228Z,68.90
2018-12-15T01:44:39.689Z,69.00
2018-12-15T01:47:11.865Z,69.10
2018-12-15T01:49:55.224Z,69.00
2018-12-15T01:52:29.429Z,69.20
2018-12-15T01:55:00.026Z,69.20
2018-12-15T01:57:33.924Z,69.20
2018-12-15T02:00:09.005Z,69.10
2018-12-15T02:02:48.560Z,69.10
2018-12-15T02:05:19.950Z,68.90
2018-12-15T02:07:52.691Z,68.80
2018-12-15T02:10:23.974Z,68.60
2018-12-15T02:13:00.565Z,68.70
2018-12-15T02:15:31.812Z,68.70
2018-12-15T02:18:02.637Z,68.80
2018-12-15T02:20:33.441Z,69.00
2018-12-15T02:23:06.834Z,68.80
2018-12-15T02:25:40.761Z,68.90
2018-12-15T02:28:10.704Z,68.90
2018-12-15T02:30:49.022Z,68.90
2018-12-15T02:33:47.820Z,69.00
2018-12-15T02:36:23.780Z,69.10
2018-12-15T02:38:56.249Z,68.90
2018-12-15T02:41:30.887Z,68.90
2018-12-15T02:44:09.879Z,69.00
2018-12-15T02:46:45.747Z,69.00
2018-12-15T02:49:17.131Z,69.00
2018-12-15T02:51:50.193Z,69.30
2018-12-15T02:54:30.457Z,69.30
2018-12-15T02:57:03.942Z,69.30
2018-12-15T02:59:39.524Z,69.40
2018-12-15T03:02:26.851Z,69.30
2018-12-15T03:04:57.828Z,69.10
2018-12-15T03:07:28.447Z,69.20
2018-12-15T03:09:58.671Z,69.30
2018-12-15T03:12:40.039Z,69.30
2018-12-15T03:15:19.162Z,69.30
2018-12-15T03:17:50.736Z,69.40
2018-12-15T03:20:20.543Z,69.30
2018-12-15T03:23:06.698Z,69.40
2018-12-15T03:25:43.312Z,69.40
2018-12-15T03:28:18.921Z,69.40
2018-12-15T03:31:07.433Z,69.40
2018-12-15T03:33:43.171Z,69.40
2018-12-15T03:36:25.999Z,69.40
2018-12-15T03:39:12.564Z,69.40
2018-12-15T03:41:57.957Z,69.50
2018-12-15T03:44:36.105Z,69.70
2018-12-15T03:50:30.648Z,69.80
2018-12-15T03:53:19.703Z,69.80
2018-12-15T03:56:05.348Z,69.80
2018-12-15T03:58:54.813Z,69.60
2018-12-15T04:01:39.274Z,69.70
2018-12-15T04:07:24.931Z,69.50
2018-12-15T04:09:59.245Z,69.70
2018-12-15T04:12:34.023Z,69.80
2018-12-15T04:15:04.234Z,70.10
2018-12-15T04:17:35.668Z,70.10
2018-12-15T04:20:09.390Z,70.10
2018-12-15T04:22:42.750Z,70.20
2018-12-15T04:25:12.628Z,70.20
2018-12-15T04:27:43.833Z,70.20
2018-12-15T04:30:16.061Z,70.20
2018-12-15T04:33:02.731Z,70.30
2018-12-15T04:35:32.572Z,70.30
2018-12-15T04:38:03.651Z,70.30
2018-12-15T04:40:34.720Z,70.30
2018-12-15T04:43:08.264Z,71.00
2018-12-15T04:45:40.921Z,70.10
2018-12-15T04:48:11.576Z,70.00
2018-12-15T04:50:41.741Z,70.00
2018-12-15T04:53:15.494Z,70.30
2018-12-15T04:55:45.161Z,70.00
2018-12-15T04:58:15.054Z,69.80
2018-12-15T05:00:44.948Z,69.90
2018-12-15T05:03:26.779Z,69.70
2018-12-15T05:06:20.486Z,69.70
2018-12-15T05:12:36.012Z,69.70
2018-12-15T05:15:21.057Z,69.50
2018-12-15T05:18:04.938Z,69.60
2018-12-15T05:20:36.522Z,69.80
2018-12-15T05:23:11.682Z,69.90
2018-12-15T05:25:58.802Z,69.90
2018-12-15T05:28:34.653Z,70.00
2018-12-15T05:31:16.526Z,70.00
2018-12-15T05:33:47.683Z,69.80
2018-12-15T05:36:18.163Z,69.90
2018-12-15T05:38:49.064Z,69.80
2018-12-15T05:41:18.775Z,69.70
2018-12-15T05:43:54.539Z,69.50
2018-12-15T05:46:24.649Z,69.60
2018-12-15T05:48:55.479Z,69.60
2018-12-15T05:51:26.125Z,69.60
2018-12-15T05:53:59.399Z,69.60
2018-12-15T05:56:29.739Z,69.50
2018-12-15T05:58:59.542Z,69.30
2018-12-15T06:01:29.457Z,69.40
2018-12-15T06:04:02.659Z,69.60
2018-12-15T06:06:32.545Z,69.50
2018-12-15T06:09:03.500Z,69.60
2018-12-15T06:11:33.524Z,69.60
2018-12-15T06:14:07.706Z,69.60
2018-12-15T06:16:37.750Z,69.40
2018-12-15T06:19:07.968Z,69.40
2018-12-15T06:21:39.062Z,69.20
2018-12-15T06:24:09.860Z,69.20
2018-12-15T06:26:44.103Z,69.10
2018-12-15T06:29:19.104Z,69.00
2018-12-15T06:31:50.023Z,69.10
2018-12-15T06:34:20.825Z,68.90
2018-12-15T06:36:51.110Z,68.80
2018-12-15T06:39:23.098Z,68.70
2018-12-15T06:41:56.051Z,68.50
2018-12-15T06:44:25.850Z,68.50
2018-12-15T06:46:56.523Z,68.20
2018-12-15T06:49:27.341Z,68.10
2018-12-15T06:51:59.784Z,68.10
2018-12-15T06:54:29.469Z,68.30
2018-12-15T06:57:00.119Z,68.30
2018-12-15T06:59:30.074Z,68.20
2018-12-15T07:02:05.395Z,68.10
2018-12-15T07:04:35.307Z,67.90
2018-12-15T07:07:10.877Z,68.00
2018-12-15T07:19:40.790Z,67.90
2018-12-15T07:55:01.391Z,67.40
2018-12-15T07:57:32.762Z,67.20
2018-12-15T08:00:02.810Z,67.20
2018-12-15T08:02:39.766Z,67.00
2018-12-15T08:05:09.971Z,66.60
2018-12-15T08:07:40.412Z,66.50
2018-12-15T08:10:10.274Z,66.40
2018-12-15T08:12:50.178Z,66.20
2018-12-15T08:15:20.191Z,66.10
2018-12-15T08:17:50.601Z,66.00
2018-12-15T08:20:20.414Z,65.90
2018-12-15T08:22:53.813Z,65.60
2018-12-15T08:25:24.189Z,65.80
2018-12-15T08:27:54.346Z,65.80
2018-12-15T08:30:24.475Z,65.70
2018-12-15T08:35:52.684Z,65.70
2018-12-15T08:38:24.113Z,65.60
2018-12-15T08:40:56.807Z,65.50
2018-12-15T08:43:34.016Z,65.50
2018-12-15T08:46:19.503Z,65.40
2018-12-15T08:48:50.339Z,65.10
2018-12-15T08:51:21.289Z,65.20
2018-12-15T08:53:52.463Z,65.30
2018-12-15T08:56:41.556Z,65.40
2018-12-15T08:59:12.527Z,66.10
2018-12-15T09:01:43.628Z,65.20
2018-12-15T09:11:01.723Z,65.00
2018-12-15T09:14:05.223Z,64.80
2018-12-15T09:16:44.808Z,64.80
2018-12-15T09:19:23.302Z,64.80
2018-12-15T09:22:11.112Z,64.80
2018-12-15T09:24:36.554Z,64.80
2018-12-15T09:27:10.470Z,64.80
2018-12-15T09:29:43.315Z,64.80
2018-12-15T09:32:22.356Z,64.70
2018-12-15T09:34:59.308Z,64.80
2018-12-15T09:37:29.104Z,64.90
2018-12-15T09:39:59.376Z,64.80
2018-12-15T09:42:37.495Z,64.50
2018-12-15T09:45:12.988Z,64.60
2018-12-15T09:47:52.726Z,64.50
2018-12-15T09:50:27.341Z,64.60
2018-12-15T09:53:06.625Z,64.60
2018-12-15T09:55:37.245Z,64.40
2018-12-15T09:58:11.466Z,64.50
2018-12-15T10:00:41.793Z,64.70
2018-12-15T10:03:18.053Z,64.80
2018-12-15T10:05:47.967Z,64.80
2018-12-15T10:08:18.008Z,64.70
2018-12-15T10:10:48.016Z,64.70
2018-12-15T10:13:32.779Z,64.50
2018-12-15T10:16:20.789Z,64.50
2018-12-15T10:18:54.475Z,64.50
2018-12-15T10:21:38.822Z,64.70
2018-12-15T10:24:08.612Z,64.70
2018-12-15T10:26:40.235Z,64.80
2018-12-15T10:29:15.175Z,64.60
2018-12-15T10:31:50.214Z,64.60
2018-12-15T10:34:19.858Z,64.50
2018-12-15T10:36:49.923Z,64.40
2018-12-15T10:39:19.867Z,64.50
2018-12-15T10:41:51.446Z,64.30
2018-12-15T10:44:35.172Z,64.30
2018-12-15T10:47:06.796Z,64.30
2018-12-15T10:49:40.285Z,64.30
2018-12-15T10:52:25.413Z,64.10
2018-12-15T10:54:57.602Z,64.20
2018-12-15T10:57:30.653Z,64.30
2018-12-15T11:00:00.930Z,64.40
2018-12-15T11:02:37.814Z,64.30
2018-12-15T11:05:08.501Z,64.30
2018-12-15T11:07:44.763Z,64.40
2018-12-15T11:10:16.105Z,64.50
2018-12-15T11:12:52.525Z,64.50
2018-12-15T11:15:24.840Z,64.60
2018-12-15T11:17:56.895Z,64.90
2018-12-15T11:20:29.573Z,65.00
2018-12-15T11:23:30.949Z,65.00
2018-12-15T11:26:06.300Z,64.80
2018-12-15T11:28:38.448Z,65.00
2018-12-15T11:31:13.870Z,64.90
2018-12-15T11:33:48.498Z,64.80
2018-12-15T11:36:19.497Z,64.80
2018-12-15T11:38:51.380Z,64.80
2018-12-15T11:41:21.072Z,64.80
2018-12-15T11:43:56.341Z,65.00
2018-12-15T11:46:26.985Z,65.00
2018-12-15T11:48:56.903Z,64.80
2018-12-15T11:51:27.332Z,64.70
2018-12-15T11:54:12.889Z,64.70
2018-12-15T11:56:44.506Z,64.50
2018-12-15T11:59:17.092Z,64.50
2018-12-15T12:01:53.132Z,64.40
2018-12-15T12:04:23.823Z,64.60
2018-12-15T12:06:53.642Z,64.90
2018-12-15T12:09:23.443Z,65.00
2018-12-15T12:11:57.126Z,65.00
2018-12-15T12:14:27.259Z,65.00
2018-12-15T12:16:56.852Z,65.00
2018-12-15T12:19:27.604Z,65.20
2018-12-15T12:22:03.280Z,65.30
2018-12-15T12:24:33.249Z,65.30
2018-12-15T12:27:10.783Z,65.30
2018-12-15T12:29:45.850Z,65.30
2018-12-15T12:32:35.839Z,65.10
2018-12-15T12:35:11.347Z,65.20
2018-12-15T12:37:41.348Z,65.30
2018-12-15T12:40:11.048Z,65.30
2018-12-15T12:42:44.398Z,65.20
2018-12-15T12:45:15.018Z,65.20
2018-12-15T12:47:45.547Z,65.20
2018-12-15T12:50:15.541Z,65.10
2018-12-15T12:52:48.766Z,65.00
2018-12-15T12:55:19.937Z,65.10
2018-12-15T12:57:50.516Z,65.20
2018-12-15T13:00:22.172Z,65.30
2018-12-15T13:02:55.080Z,65.40
2018-12-15T13:05:36.097Z,65.40
2018-12-15T13:08:07.229Z,65.40
2018-12-15T13:10:38.972Z,65.40
2018-12-15T13:13:24.028Z,65.50
2018-12-15T13:15:55.170Z,65.70
2018-12-15T13:18:26.866Z,65.80
2018-12-15T13:21:05.252Z,65.80
2018-12-15T13:23:39.182Z,65.80
2018-12-15T13:26:18.656Z,65.90
2018-12-15T13:28:53.379Z,65.80
2018-12-15T13:31:30.984Z,65.80
2018-12-15T13:34:13.036Z,65.90
2018-12-15T13:36:43.597Z,66.00
2018-12-15T13:39:14.001Z,66.10
2018-12-15T13:41:49.546Z,66.20
2018-12-15T13:44:48.336Z,66.20
2018-12-15T13:47:20.632Z,66.20
2018-12-15T13:49:51.745Z,66.20
2018-12-15T13:52:27.010Z,66.10
2018-12-15T13:55:03.541Z,66.40
2018-12-15T13:57:34.203Z,66.40
2018-12-15T14:00:06.614Z,66.70
2018-12-15T14:02:47.011Z,66.70
2018-12-15T14:05:19.214Z,66.70
2018-12-15T14:07:53.219Z,66.70
2018-12-15T14:13:10.158Z,66.80
2018-12-15T14:15:41.886Z,67.00
2018-12-15T14:18:17.230Z,67.90
2018-12-15T14:20:47.519Z,67.20
2018-12-15T14:23:32.439Z,67.30
2018-12-15T14:26:06.248Z,67.40
2018-12-15T14:28:36.005Z,67.40
2018-12-15T14:31:06.351Z,67.40
2018-12-15T14:33:43.012Z,67.60
2018-12-15T14:36:13.031Z,67.60
2018-12-15T14:38:42.843Z,67.60
2018-12-15T14:41:18.943Z,67.70
2018-12-15T14:44:00.038Z,67.60
2018-12-15T14:46:34.353Z,67.80
2018-12-15T14:52:22.410Z,67.60
2018-12-15T14:55:04.968Z,67.60
2018-12-15T14:57:43.680Z,67.70
2018-12-15T15:03:12.595Z,67.80
2018-12-15T15:08:33.174Z,67.90
2018-12-15T15:11:29.202Z,68.00
2018-12-15T15:14:20.204Z,68.00
2018-12-15T15:17:00.174Z,68.20
2018-12-15T15:19:34.801Z,68.10
2018-12-15T15:22:31.570Z,67.80
2018-12-15T15:25:22.454Z,67.70
2018-12-15T15:28:10.847Z,67.70
2018-12-15T15:30:59.684Z,67.80
2018-12-15T15:40:15.674Z,68.10
2018-12-15T15:43:02.770Z,68.20
2018-12-15T15:45:52.170Z,68.10
2018-12-15T16:03:02.664Z,68.20
2018-12-15T16:09:16.307Z,68.20
2018-12-15T16:11:50.413Z,68.30
2018-12-15T16:14:27.434Z,68.40
2018-12-15T16:17:00.636Z,68.40
2018-12-15T16:19:41.413Z,68.50
2018-12-15T16:22:20.141Z,68.60
2018-12-15T16:25:03.400Z,68.70
2018-12-15T16:27:40.848Z,68.80
2018-12-15T16:31:31.045Z,68.70
2018-12-15T16:34:50.903Z,68.60
2018-12-15T16:40:51.287Z,69.40
2018-12-15T16:43:31.569Z,68.60
2018-12-15T16:46:22.919Z,68.70
2018-12-15T16:49:09.660Z,68.70
2018-12-15T16:51:41.993Z,68.70
2018-12-15T16:54:14.603Z,68.70
2018-12-15T16:56:44.818Z,68.70
2018-12-15T17:15:42.655Z,68.80
2018-12-15T17:18:26.554Z,69.10
2018-12-15T17:20:59.928Z,69.40
2018-12-15T17:23:36.878Z,69.60
2018-12-15T17:26:13.661Z,69.90
2018-12-15T17:28:53.608Z,69.90
2018-12-15T17:31:27.424Z,69.90
2018-12-15T17:37:08.124Z,70.10
2018-12-15T17:39:40.018Z,70.10
2018-12-15T17:42:26.905Z,70.10
2018-12-15T17:51:03.284Z,70.20
2018-12-15T17:53:40.256Z,70.20
2018-12-15T17:56:14.579Z,70.20
2018-12-15T17:58:46.114Z,70.20
2018-12-15T18:01:16.383Z,70.20
2018-12-15T18:03:51.870Z,70.20
2018-12-15T18:06:21.580Z,70.20
2018-12-15T18:08:52.320Z,70.20
2018-12-15T18:11:42.729Z,70.20
2018-12-15T18:17:31.614Z,70.20
2018-12-15T18:20:09.897Z,70.30
2018-12-15T18:22:41.365Z,70.30
2018-12-15T18:25:15.886Z,70.20
2018-12-15T18:27:56.830Z,70.20
2018-12-15T18:30:34.374Z,70.20
2018-12-15T18:33:04.237Z,70.30
2018-12-15T18:35:34.259Z,70.30
2018-12-15T18:38:05.195Z,70.30
2018-12-15T18:40:38.176Z,70.30
2018-12-15T18:43:14.088Z,70.40
2018-12-15T18:46:07.831Z,70.40
2018-12-15T18:48:43.866Z,70.50
2018-12-15T18:51:19.089Z,70.40
2018-12-15T18:54:00.840Z,70.60
2018-12-15T18:56:36.303Z,70.80
2018-12-15T18:59:08.417Z,70.60
2018-12-15T19:01:38.723Z,70.60
2018-12-15T19:04:20.612Z,70.50
2018-12-15T19:06:59.191Z,70.60
2018-12-15T19:09:32.527Z,70.60
2018-12-15T19:12:16.255Z,70.50
2018-12-15T19:15:02.733Z,70.40
2018-12-15T19:17:36.027Z,70.60
2018-12-15T19:20:09.378Z,70.50
2018-12-15T19:22:55.579Z,70.50
2018-12-15T19:25:34.717Z,70.60
2018-12-15T19:28:19.375Z,70.70
2018-12-15T19:30:51.317Z,70.70
2018-12-15T19:33:36.634Z,70.60
2018-12-15T19:36:08.398Z,70.60
2018-12-15T19:38:41.875Z,70.70
2018-12-15T19:41:13.970Z,70.60
2018-12-15T19:43:44.841Z,70.80
2018-12-15T19:46:20.496Z,70.60
2018-12-15T19:48:50.493Z,70.50
2018-12-15T19:51:29.328Z,71.40
2018-12-15T19:54:01.869Z,70.80
2018-12-15T19:56:48.598Z,70.70
2018-12-15T19:59:27.895Z,70.90
2018-12-15T20:01:58.395Z,70.90
2018-12-15T20:04:42.466Z,70.90
2018-12-15T20:10:06.706Z,70.90
2018-12-15T20:12:48.973Z,70.70
2018-12-15T20:15:20.063Z,70.60
2018-12-15T20:18:19.616Z,70.60
2018-12-15T20:21:03.258Z,70.80
2018-12-15T20:23:39.680Z,70.80
2018-12-15T20:26:16.582Z,70.90
2018-12-15T20:28:51.799Z,71.00
2018-12-15T20:31:29.796Z,71.00
2018-12-15T20:34:14.445Z,71.00
2018-12-15T20:36:54.667Z,71.00
2018-12-15T20:39:40.023Z,71.10
2018-12-15T20:42:17.187Z,71.00
2018-12-15T20:44:50.092Z,71.00
2018-12-15T20:47:31.929Z,71.00
2018-12-15T20:50:19.588Z,70.90
2018-12-15T20:53:10.556Z,71.00
2018-12-15T20:55:58.358Z,71.00
2018-12-15T20:58:30.021Z,70.90
2018-12-15T21:01:07.111Z,71.20
2018-12-15T21:04:03.475Z,71.20
2018-12-15T21:07:05.818Z,71.10
2018-12-15T21:13:07.367Z,71.10
2018-12-15T21:16:30.337Z,71.10
2018-12-15T21:19:20.702Z,71.20
2018-12-15T21:22:21.421Z,71.20
2018-12-15T21:28:28.839Z,71.20
2018-12-15T21:31:14.634Z,71.20
2018-12-15T21:34:07.562Z,71.20
2018-12-15T21:37:00.550Z,71.20
2018-12-15T21:39:59.849Z,71.30
2018-12-15T21:42:52.497Z,71.30
2018-12-15T21:45:35.550Z,71.40
2018-12-15T21:48:18.579Z,71.40
2018-12-15T21:51:13.587Z,71.70
2018-12-15T21:54:08.334Z,71.80
2018-12-15T21:59:33.935Z,71.90
2018-12-15T22:02:15.182Z,72.00
2018-12-15T22:04:50.083Z,72.00
2018-12-15T22:07:48.202Z,72.00
2018-12-15T22:10:47.291Z,72.10
2018-12-15T22:13:56.088Z,72.90
2018-12-15T22:16:37.770Z,72.30
2018-12-15T22:19:12.190Z,72.30
2018-12-15T22:22:08.462Z,72.40
2018-12-15T22:24:58.624Z,72.20
2018-12-15T22:27:43.851Z,72.30
2018-12-15T22:30:31.103Z,72.30
2018-12-15T22:33:18.022Z,72.30
2018-12-15T22:35:49.781Z,72.20
2018-12-15T22:41:14.593Z,72.30
2018-12-15T22:44:00.776Z,72.50
2018-12-15T22:46:56.302Z,72.60
2018-12-15T22:49:31.601Z,72.40
2018-12-15T22:52:24.959Z,72.40
2018-12-15T22:55:01.893Z,72.30
2018-12-15T22:57:35.209Z,72.40
2018-12-15T23:00:15.199Z,72.50
2018-12-15T23:02:51.420Z,72.50
2018-12-15T23:05:21.161Z,72.50
2018-12-15T23:08:03.754Z,72.50
2018-12-15T23:10:37.672Z,72.70
2018-12-15T23:13:22.024Z,72.70
2018-12-15T23:16:01.476Z,72.70
2018-12-15T23:18:42.184Z,72.80
2018-12-15T23:21:15.134Z,72.90
2018-12-15T23:24:03.786Z,72.90
2018-12-15T23:26:37.687Z,73.00
2018-12-15T23:29:12.341Z,72.90
2018-12-15T23:31:52.553Z,72.90
2018-12-15T23:34:26.869Z,72.90
2018-12-15T23:37:16.730Z,72.90
2018-12-15T23:42:30.697Z,72.70
2018-12-15T23:47:57.591Z,72.70
2018-12-15T23:50:34.958Z,72.60
2018-12-15T23:53:16.861Z,72.60
2018-12-15T23:58:46.295Z,72.70
